Terminal Aerodrome Forecast
Issued by NWS Charleston, WV

Current Version | Previous Version | Graphics & Text | Print | Product List | Glossary On
Versions: 1 2 3 4 5 6 7 8 9 10 11 12 13 14 15 16 17 18 19 20 21 22 23 24 25 26 27 28 29 30 31 32 33
000
FTUS41 KRLX 261700
TAFCRW
TAF
KCRW 261740Z 2618/2718 24007KT P6SM SCT050
     FM270000 24006KT P6SM BKN050
     FM270400 19003KT P6SM BKN080
     FM270800 16002KT 4SM SHRA BR VCTS BKN040CB
     FM271200 23005KT 1 1/2SM TSRA BR BKN012CB
     FM271300 22006KT 3SM TSRA BR BKN020CB=

USA.gov is the U.S. government's official web portal to all federal, state and local government web resources and services.